Time;durP1;ratioP1;P1;durP2;ratioP2;P2;SDS_P1;SDS_P2;PMS_P1;PMS_P2;Temp;Humidity;BMP_temperature;BMP_pressure;BME280_temperature;BME280_humidity;BME280_pressure;Samples;Min_cycle;Max_cycle;Signal;HPM_P1;HPM_P2
2022/04/30 00:00:40;;;;;;;9.87;8.87;;;;;;;15.94;100.00;99850.72;5112482;28;20199;-65
2022/04/30 00:03:09;;;;;;;10.73;9.60;;;;;;;15.97;100.00;99856.59;5112637;28;20213;-65
2022/04/30 00:05:36;;;;;;;10.40;9.20;;;;;;;15.91;100.00;99850.88;5113092;28;20215;-65
2022/04/30 00:08:05;;;;;;;9.87;8.77;;;;;;;15.93;100.00;99849.06;5112161;28;20195;-65
2022/04/30 00:10:37;;;;;;;11.60;10.33;;;;;;;15.89;100.00;99845.78;5113007;28;20223;-64
2022/04/30 00:13:06;;;;;;;16.50;12.23;;;;;;;15.91;100.00;99861.22;5112353;28;20229;-64
2022/04/30 00:15:34;;;;;;;13.27;11.53;;;;;;;15.95;100.00;99862.75;5112834;28;20190;-64
2022/04/30 00:18:01;;;;;;;14.50;10.83;;;;;;;15.84;100.00;99844.28;5113083;28;20204;-64
2022/04/30 00:20:28;;;;;;;11.40;9.87;;;;;;;15.97;100.00;99861.78;5112673;28;20190;-65
2022/04/30 00:22:55;;;;;;;10.80;9.73;;;;;;;16.02;100.00;99864.19;5111958;28;20238;-65
2022/04/30 00:25:23;;;;;;;14.97;10.77;;;;;;;16.03;100.00;99860.66;5112466;28;20590;-65
2022/04/30 00:27:50;;;;;;;11.43;10.13;;;;;;;16.03;100.00;99866.66;5112471;28;20202;-65
2022/04/30 00:30:19;;;;;;;10.70;9.80;;;;;;;16.07;100.00;99872.56;5112520;28;20199;-64
2022/04/30 00:32:46;;;;;;;11.57;10.00;;;;;;;16.06;100.00;99866.53;5110847;28;20201;-65
2022/04/30 00:35:14;;;;;;;9.77;8.77;;;;;;;16.00;100.00;99866.81;5112673;28;20616;-65
2022/04/30 00:37:41;;;;;;;9.87;9.07;;;;;;;15.98;100.00;99855.72;5112131;28;20210;-65
2022/04/30 00:40:09;;;;;;;13.87;9.60;;;;;;;16.03;100.00;99865.81;5112547;28;20200;-64
2022/04/30 00:42:36;;;;;;;10.93;9.20;;;;;;;16.05;100.00;99854.53;5111348;28;20218;-65
2022/04/30 00:45:04;;;;;;;12.33;9.80;;;;;;;16.05;100.00;99862.28;5112475;28;20582;-64
2022/04/30 00:47:33;;;;;;;12.53;10.17;;;;;;;16.09;100.00;99857.81;5111958;28;20205;-65
2022/04/30 00:50:00;;;;;;;9.90;8.93;;;;;;;16.12;100.00;99855.09;5112155;28;20205;-65
2022/04/30 00:52:27;;;;;;;15.13;11.20;;;;;;;16.15;100.00;99854.94;5111774;28;20222;-65
2022/04/30 00:55:01;;;;;;;11.20;9.33;;;;;;;16.13;100.00;99856.75;5109083;28;20200;-65
2022/04/30 00:57:32;;;;;;;11.63;9.83;;;;;;;16.02;100.00;99843.47;5112214;28;20255;-64
2022/04/30 01:00:00;;;;;;;10.63;9.40;;;;;;;16.04;100.00;99841.66;5110054;28;20685;-65
2022/04/30 01:02:29;;;;;;;11.00;9.90;;;;;;;15.96;100.00;99838.59;5111407;28;20193;-64
2022/04/30 01:04:58;;;;;;;10.77;9.77;;;;;;;15.97;100.00;99829.91;5103032;28;20215;-64
2022/04/30 01:07:25;;;;;;;11.47;10.20;;;;;;;15.95;100.00;99836.91;5110671;28;20269;-65
2022/04/30 01:09:54;;;;;;;10.03;9.03;;;;;;;15.84;100.00;99826.19;5109976;28;20198;-65
2022/04/30 01:12:22;;;;;;;9.97;8.63;;;;;;;15.86;100.00;99835.59;5109604;28;20256;-65
2022/04/30 01:14:51;;;;;;;10.50;9.40;;;;;;;15.85;100.00;99833.03;5111528;28;20186;-65
2022/04/30 01:17:18;;;;;;;10.50;9.40;;;;;;;15.88;100.00;99840.66;5109052;28;20552;-65
2022/04/30 01:19:47;;;;;;;9.50;8.60;;;;;;;15.73;100.00;99817.16;5111728;28;20206;-65
2022/04/30 01:22:23;;;;;;;10.43;9.37;;;;;;;15.71;100.00;99829.31;5111107;28;20195;-65
2022/04/30 01:24:55;;;;;;;10.57;9.57;;;;;;;15.76;100.00;99836.91;5109451;28;20363;-65
2022/04/30 01:27:26;;;;;;;11.80;9.03;;;;;;;15.85;100.00;99835.63;5109857;28;20200;-65
2022/04/30 01:29:53;;;;;;;12.00;10.77;;;;;;;15.77;100.00;99833.38;5109473;28;20226;-65
2022/04/30 01:37:58;;;;;;;12.73;11.20;;;;;;;15.76;100.00;99849.81;5109825;28;20201;-65
2022/04/30 01:40:28;;;;;;;11.57;9.27;;;;;;;15.74;100.00;99852.44;5109418;28;20200;-65
2022/04/30 01:42:58;;;;;;;11.70;10.60;;;;;;;15.77;100.00;99854.91;5108858;28;20201;-64
2022/04/30 01:45:25;;;;;;;12.70;10.80;;;;;;;15.77;100.00;99838.56;5111432;28;20210;-65
2022/04/30 01:47:54;;;;;;;11.57;10.50;;;;;;;15.74;100.00;99839.53;5108967;28;20203;-64
2022/04/30 01:50:21;;;;;;;12.80;11.57;;;;;;;15.72;100.00;99836.19;5111547;28;20203;-65
2022/04/30 01:52:48;;;;;;;12.70;11.30;;;;;;;15.73;100.00;99832.66;5110665;28;20195;-65
2022/04/30 01:55:15;;;;;;;12.70;10.27;;;;;;;15.63;100.00;99821.09;5111384;28;20193;-64
2022/04/30 01:57:44;;;;;;;12.03;10.80;;;;;;;15.61;100.00;99827.22;5111338;28;20199;-65
2022/04/30 02:00:14;;;;;;;13.97;11.40;;;;;;;15.56;100.00;99822.25;5111221;28;20327;-65
2022/04/30 02:02:43;;;;;;;12.10;11.00;;;;;;;15.45;100.00;99800.31;5108748;28;20205;-65
2022/04/30 02:05:13;;;;;;;12.33;10.77;;;;;;;15.57;100.00;99818.75;5109650;28;20210;-65
2022/04/30 02:07:45;;;;;;;12.70;10.07;;;;;;;15.52;100.00;99823.28;5111288;28;20259;-65
2022/04/30 02:10:13;;;;;;;11.70;10.20;;;;;;;15.48;100.00;99807.97;5109989;28;20205;-65
2022/04/30 02:12:41;;;;;;;14.27;11.10;;;;;;;15.51;100.00;99816.44;5108073;28;20187;-65
2022/04/30 02:15:10;;;;;;;14.17;10.83;;;;;;;15.48;100.00;99826.06;5110729;28;20197;-65
2022/04/30 02:17:40;;;;;;;12.37;11.10;;;;;;;15.50;100.00;99817.34;5111079;28;20210;-64
2022/04/30 02:20:22;;;;;;;12.27;11.10;;;;;;;15.46;100.00;99813.19;5110952;28;20263;-65
2022/04/30 02:22:50;;;;;;;14.20;11.10;;;;;;;15.50;100.00;99819.94;5112628;28;20193;-65
2022/04/30 02:25:19;;;;;;;13.13;11.83;;;;;;;15.45;100.00;99811.50;5114988;28;20214;-64
2022/04/30 02:27:48;;;;;;;12.30;11.13;;;;;;;15.32;100.00;99799.19;5115229;28;20254;-65
2022/04/30 02:30:18;;;;;;;16.13;11.80;;;;;;;15.40;100.00;99817.78;5114708;28;20566;-64
2022/04/30 02:32:46;;;;;;;12.13;10.93;;;;;;;15.39;100.00;99822.09;5113790;28;20199;-65
2022/04/30 02:35:15;;;;;;;15.70;11.30;;;;;;;15.41;100.00;99829.81;5114682;28;20257;-65
2022/04/30 02:37:44;;;;;;;12.70;11.40;;;;;;;15.38;100.00;99817.84;5115136;28;20230;-65
2022/04/30 02:40:13;;;;;;;14.73;11.80;;;;;;;15.41;100.00;99830.63;5114860;28;20582;-64
2022/04/30 02:42:41;;;;;;;13.33;12.03;;;;;;;15.26;100.00;99805.44;5110437;28;20579;-65
2022/04/30 02:45:09;;;;;;;14.60;11.43;;;;;;;15.25;100.00;99814.09;5114612;28;20666;-64
2022/04/30 02:47:41;;;;;;;13.10;11.80;;;;;;;15.40;100.00;99828.97;5114691;28;20201;-65
2022/04/30 02:50:09;;;;;;;12.17;10.97;;;;;;;15.25;100.00;99798.59;5114601;28;20210;-64
2022/04/30 02:52:36;;;;;;;13.17;11.67;;;;;;;15.45;100.00;99821.84;5111608;28;20269;-65
2022/04/30 02:55:04;;;;;;;13.00;11.13;;;;;;;15.55;100.00;99838.66;5111076;28;20207;-65
2022/04/30 02:59:53;;;;;;;12.27;11.20;;;;;;;15.55;100.00;99836.06;5114211;28;20652;-65
2022/04/30 03:00:30;;;;;;;12.57;11.17;;;;;;;15.55;100.00;99843.81;5114118;28;20192;-65
2022/04/30 03:02:59;;;;;;;12.50;11.30;;;;;;;15.55;100.00;99832.66;5113914;28;20571;-64
2022/04/30 03:05:26;;;;;;;12.27;10.83;;;;;;;15.50;100.00;99830.28;5113841;28;20590;-64
2022/04/30 03:07:53;;;;;;;13.93;11.43;;;;;;;15.50;100.00;99830.28;5114437;28;20282;-65
2022/04/30 03:10:20;;;;;;;17.37;12.03;;;;;;;15.50;100.00;99824.28;5114446;28;20203;-65
2022/04/30 03:12:48;;;;;;;12.87;10.93;;;;;;;15.47;100.00;99825.22;5113763;28;20202;-65
2022/04/30 03:15:17;;;;;;;12.57;11.37;;;;;;;15.32;100.00;99819.84;5114313;28;20194;-65
2022/04/30 03:23:14;;;;;;;12.53;11.23;;;;;;;15.20;100.00;99823.81;5114125;28;20206;-64
2022/04/30 03:25:40;;;;;;;12.40;11.20;;;;;;;15.06;100.00;99818.34;5113193;28;20221;-65
2022/04/30 03:28:07;;;;;;;14.50;11.63;;;;;;;15.06;100.00;99821.78;5113666;28;20285;-64
2022/04/30 03:30:34;;;;;;;12.90;11.43;;;;;;;15.04;100.00;99821.03;5113385;28;20668;-65
2022/04/30 03:33:01;;;;;;;12.50;11.37;;;;;;;14.98;100.00;99823.88;5113715;28;20195;-64
2022/04/30 03:35:29;;;;;;;11.80;10.60;;;;;;;14.97;100.00;99823.91;5107966;28;20208;-65
2022/04/30 03:37:56;;;;;;;12.30;10.87;;;;;;;14.90;100.00;99828.47;5113080;28;20195;-64
2022/04/30 03:40:23;;;;;;;12.87;11.57;;;;;;;14.94;100.00;99829.19;5112259;28;20214;-65
2022/04/30 03:42:50;;;;;;;12.40;11.17;;;;;;;14.95;100.00;99831.75;5111498;28;20226;-65
2022/04/30 03:45:17;;;;;;;12.90;11.60;;;;;;;14.89;100.00;99818.25;5110936;28;20271;-64
2022/04/30 03:47:44;;;;;;;14.53;12.30;;;;;;;14.97;100.00;99818.75;5110584;28;20207;-64
2022/04/30 03:50:11;;;;;;;16.13;12.93;;;;;;;15.02;100.00;99827.16;5111658;28;20200;-64
2022/04/30 03:52:39;;;;;;;13.80;12.30;;;;;;;15.04;100.00;99825.34;5111549;28;20738;-64
2022/04/30 03:55:08;;;;;;;12.70;11.37;;;;;;;15.02;100.00;99830.59;5112319;28;20206;-64
2022/04/30 03:57:36;;;;;;;13.33;11.93;;;;;;;15.04;100.00;99833.09;5110527;28;20278;-65
2022/04/30 04:00:04;;;;;;;12.60;11.30;;;;;;;15.02;100.00;99832.31;5111206;28;21206;-65
2022/04/30 04:02:32;;;;;;;14.47;13.17;;;;;;;15.04;100.00;99840.84;5113390;28;20198;-64
2022/04/30 04:04:59;;;;;;;14.07;11.87;;;;;;;15.00;100.00;99844.44;5113257;28;20583;-65
2022/04/30 04:07:26;;;;;;;14.13;12.80;;;;;;;14.89;100.00;99841.47;5112556;28;20218;-64
2022/04/30 04:09:55;;;;;;;12.77;11.80;;;;;;;14.90;100.00;99848.28;5113016;28;20202;-65
2022/04/30 04:12:21;;;;;;;14.97;12.73;;;;;;;14.89;100.00;99844.06;5113272;28;20201;-64
2022/04/30 04:17:39;;;;;;;15.20;11.60;;;;;;;14.87;100.00;99846.69;5110732;28;20667;-65
2022/04/30 04:20:07;;;;;;;12.67;11.23;;;;;;;14.77;100.00;99844.53;5112122;28;20208;-64
2022/04/30 04:22:34;;;;;;;13.37;12.17;;;;;;;14.78;100.00;99843.63;5113001;28;20195;-65
2022/04/30 04:27:47;;;;;;;12.97;11.57;;;;;;;14.79;100.00;99845.31;5112046;28;20255;-65
2022/04/30 04:30:14;;;;;;;13.03;11.10;;;;;;;14.66;100.00;99856.13;5112651;28;20673;-65
2022/04/30 04:32:41;;;;;;;12.47;11.60;;;;;;;14.68;100.00;99859.50;5108642;28;20357;-65
2022/04/30 04:35:09;;;;;;;11.57;10.67;;;;;;;14.73;100.00;99852.38;5109165;28;20628;-65
2022/04/30 04:37:35;;;;;;;11.87;10.87;;;;;;;14.80;100.00;99862.50;5109324;28;20198;-64
2022/04/30 04:40:05;;;;;;;12.23;10.93;;;;;;;14.86;100.00;99862.25;5110093;28;20258;-64
2022/04/30 04:42:32;;;;;;;11.23;10.20;;;;;;;14.79;100.00;99863.38;5109204;28;20584;-65
2022/04/30 04:44:59;;;;;;;10.20;9.30;;;;;;;14.69;100.00;99857.75;5108698;28;20204;-64
2022/04/30 04:47:26;;;;;;;10.43;9.50;;;;;;;14.78;100.00;99865.13;5110756;28;20299;-65
2022/04/30 04:49:53;;;;;;;10.27;9.30;;;;;;;14.80;100.00;99858.16;5112105;28;20195;-65
2022/04/30 04:52:20;;;;;;;10.13;9.30;;;;;;;14.90;100.00;99863.78;5110732;28;20195;-65
2022/04/30 04:54:47;;;;;;;10.57;9.60;;;;;;;14.93;100.00;99864.50;5112005;28;20681;-65
2022/04/30 04:57:16;;;;;;;11.43;10.27;;;;;;;15.01;100.00;99866.78;5108207;28;20282;-65
2022/04/30 04:59:43;;;;;;;10.07;9.10;;;;;;;15.04;100.00;99856.31;5112119;28;20285;-65
2022/04/30 05:02:11;;;;;;;10.17;9.30;;;;;;;15.13;100.00;99856.78;5110990;28;20640;-65
2022/04/30 05:04:37;;;;;;;9.10;8.37;;;;;;;15.15;100.00;99869.66;5111849;28;20252;-64
2022/04/30 05:07:04;;;;;;;9.83;9.00;;;;;;;15.15;100.00;99874.81;5111724;28;20217;-64
2022/04/30 05:09:32;;;;;;;9.30;8.47;;;;;;;15.08;100.00;99873.38;5110251;28;20202;-65
2022/04/30 05:12:01;;;;;;;10.47;9.27;;;;;;;15.12;100.00;99874.94;5110993;28;20248;-64
2022/04/30 05:14:31;;;;;;;9.37;8.70;;;;;;;15.35;100.00;99877.38;5111460;28;20201;-65
2022/04/30 05:16:58;;;;;;;10.80;9.87;;;;;;;15.49;100.00;99875.09;5108080;28;20187;-65
2022/04/30 05:19:25;;;;;;;11.43;10.33;;;;;;;15.37;100.00;99854.94;5108671;28;20203;-65
2022/04/30 05:21:51;;;;;;;9.53;8.70;;;;;;;15.67;100.00;99879.47;5109310;28;20728;-65
2022/04/30 05:24:18;;;;;;;9.50;8.67;;;;;;;15.77;100.00;99885.09;5110983;28;20204;-65
2022/04/30 05:26:47;;;;;;;9.13;8.33;;;;;;;15.84;100.00;99885.66;5111315;28;20585;-65
2022/04/30 05:29:14;;;;;;;8.83;8.13;;;;;;;15.82;100.00;99892.66;5112000;28;20202;-64
2022/04/30 05:31:43;;;;;;;8.67;8.07;;;;;;;15.84;100.00;99896.84;5110713;28;20290;-65
2022/04/30 05:34:10;;;;;;;10.00;9.10;;;;;;;15.89;100.00;99909.59;5111309;28;20281;-65
2022/04/30 05:36:38;;;;;;;10.40;9.67;;;;;;;15.91;100.00;99907.75;5111358;28;20720;-65
2022/04/30 05:39:05;;;;;;;9.03;8.37;;;;;;;15.84;100.00;99907.19;5111317;28;20252;-65
2022/04/30 05:41:32;;;;;;;10.03;9.17;;;;;;;15.85;100.00;99913.19;5110630;28;20225;-64
2022/04/30 05:43:59;;;;;;;12.43;8.80;;;;;;;15.88;100.00;99913.06;5109236;28;20664;-65
2022/04/30 05:46:26;;;;;;;10.53;9.13;;;;;;;15.91;100.00;99916.34;5110233;28;20705;-64
2022/04/30 05:48:54;;;;;;;10.00;9.10;;;;;;;15.90;100.00;99911.25;5111521;28;20205;-64
2022/04/30 05:51:21;;;;;;;9.60;8.87;;;;;;;15.92;100.00;99914.63;5110349;28;20199;-65
2022/04/30 05:53:48;;;;;;;10.03;9.23;;;;;;;15.96;100.00;99916.16;5110335;28;20200;-64
2022/04/30 05:56:15;;;;;;;9.70;8.87;;;;;;;15.99;100.00;99916.03;5111031;28;20237;-65
2022/04/30 05:58:42;;;;;;;12.13;9.00;;;;;;;16.02;100.00;99908.13;5110283;28;20284;-65
2022/04/30 06:01:09;;;;;;;9.40;8.60;;;;;;;16.16;100.00;99905.75;5111360;28;20708;-65
2022/04/30 06:03:36;;;;;;;10.23;9.33;;;;;;;16.19;100.00;99905.63;5109905;28;20248;-64
2022/04/30 06:06:05;;;;;;;10.40;9.57;;;;;;;16.14;100.00;99910.16;5111081;28;20209;-64
2022/04/30 06:08:32;;;;;;;10.23;9.17;;;;;;;16.05;100.00;99921.78;5111123;28;20277;-65
2022/04/30 06:11:00;;;;;;;14.77;9.80;;;;;;;15.92;100.00;99899.09;5111058;28;20227;-64
2022/04/30 06:13:27;;;;;;;10.83;9.70;;;;;;;16.09;100.00;99915.53;5110557;28;20203;-64
2022/04/30 06:15:53;;;;;;;10.30;9.40;;;;;;;16.14;100.00;99894.66;5109787;28;20280;-65
2022/04/30 06:18:21;;;;;;;11.50;10.07;;;;;;;16.40;100.00;99907.25;5109964;28;20575;-65
2022/04/30 06:20:48;;;;;;;10.50;9.27;;;;;;;16.52;100.00;99901.50;5110211;28;20194;-67
2022/04/30 06:23:16;;;;;;;7.97;7.43;;;;;;;16.60;100.00;99908.94;5108753;28;20582;-68
2022/04/30 06:25:45;;;;;;;13.57;9.83;;;;;;;16.60;100.00;99899.44;5108132;28;20291;-67
2022/04/30 06:28:12;;;;;;;10.55;9.80;;;;;;;16.78;100.00;99919.28;5109568;28;20446;-62
2022/04/30 06:30:39;;;;;;;9.93;9.17;;;;;;;16.96;100.00;99917.56;5110844;28;20197;-62
2022/04/30 06:33:07;;;;;;;11.93;9.87;;;;;;;17.16;100.00;99916.59;5110313;28;20205;-63
2022/04/30 06:35:35;;;;;;;10.33;9.53;;;;;;;17.23;100.00;99917.97;5110905;28;20203;-62
2022/04/30 06:38:02;;;;;;;10.70;9.70;;;;;;;17.28;100.00;99923.78;5111168;28;20248;-62
2022/04/30 06:40:31;;;;;;;13.00;9.27;;;;;;;17.35;100.00;99925.13;5110503;28;20190;-62
2022/04/30 06:42:59;;;;;;;9.50;8.67;;;;;;;17.37;100.00;99900.00;5110771;28;20199;-62
2022/04/30 06:45:26;;;;;;;9.73;8.90;;;;;;;17.52;100.00;99922.56;5110985;28;20647;-63
2022/04/30 06:47:53;;;;;;;9.27;8.63;;;;;;;17.60;100.00;99910.09;5110949;28;20678;-64
2022/04/30 06:50:19;;;;;;;10.23;9.47;;;;;;;17.84;100.00;99910.56;5110916;28;20619;-63
2022/04/30 06:58:17;;;;;;;8.83;8.27;;;;;;;18.18;99.31;99912.25;5110824;28;20197;-63
2022/04/30 07:03:30;;;;;;;10.37;9.43;;;;;;;18.66;98.23;99914.81;5110623;28;20198;-63
2022/04/30 07:06:03;;;;;;;10.80;9.70;;;;;;;18.85;96.06;99909.44;5110740;28;20285;-64
2022/04/30 07:08:31;;;;;;;9.93;8.70;;;;;;;18.86;95.65;99909.38;5110647;28;20250;-63
2022/04/30 07:10:59;;;;;;;9.83;9.13;;;;;;;18.97;93.99;99905.31;5114091;28;20195;-63
2022/04/30 07:13:26;;;;;;;9.37;8.67;;;;;;;19.12;92.93;99912.25;5114210;28;20290;-64
2022/04/30 07:15:53;;;;;;;9.53;8.77;;;;;;;19.25;92.67;99910.63;5114096;28;20199;-64
2022/04/30 07:18:20;;;;;;;10.50;9.70;;;;;;;19.47;92.95;99913.69;5114245;28;20274;-63
2022/04/30 07:20:48;;;;;;;10.70;9.80;;;;;;;19.72;91.37;99906.09;5114315;28;20676;-63
2022/04/30 07:23:15;;;;;;;9.70;8.80;;;;;;;19.92;89.50;99920.53;5113901;28;20264;-64
2022/04/30 07:25:41;;;;;;;9.93;8.87;;;;;;;20.03;85.31;99917.28;5114070;28;20199;-64
2022/04/30 07:28:10;;;;;;;9.70;8.97;;;;;;;20.29;83.74;99930.41;5113862;28;20605;-64
2022/04/30 07:30:37;;;;;;;10.23;9.27;;;;;;;20.52;85.27;99922.94;5113889;28;20206;-63
2022/04/30 07:33:04;;;;;;;8.87;8.17;;;;;;;20.57;81.44;99924.31;5113970;28;20199;-63
2022/04/30 07:35:31;;;;;;;9.33;8.40;;;;;;;20.77;83.54;99926.53;5113864;28;20199;-64
2022/04/30 07:37:58;;;;;;;8.73;8.13;;;;;;;21.05;83.92;99922.13;5113593;28;20232;-64
2022/04/30 07:40:25;;;;;;;9.50;8.63;;;;;;;21.42;81.74;99924.03;5113657;28;20285;-64
2022/04/30 07:42:52;;;;;;;8.40;7.63;;;;;;;21.53;74.80;99924.16;5113605;28;20225;-64
2022/04/30 07:45:20;;;;;;;8.30;7.07;;;;;;;21.50;75.11;99920.91;5113602;28;20215;-65
2022/04/30 07:47:47;;;;;;;7.63;7.03;;;;;;;21.46;75.07;99921.09;5113600;28;20228;-64
2022/04/30 07:50:16;;;;;;;7.87;7.20;;;;;;;21.67;73.34;99918.84;5113769;28;20688;-64
2022/04/30 07:52:43;;;;;;;8.00;7.40;;;;;;;21.48;73.96;99922.78;5113530;28;20201;-64
2022/04/30 07:55:10;;;;;;;7.83;7.27;;;;;;;21.51;73.38;99917.38;5113544;28;20206;-63
2022/04/30 07:57:37;;;;;;;8.27;7.50;;;;;;;21.64;73.78;99910.38;5110696;28;20281;-64
2022/04/30 08:00:04;;;;;;;8.97;8.20;;;;;;;21.54;72.19;99902.34;5113415;28;20194;-64
2022/04/30 08:02:32;;;;;;;8.97;8.37;;;;;;;21.28;74.39;99916.28;5113491;28;20607;-65
2022/04/30 08:05:01;;;;;;;9.07;8.47;;;;;;;21.48;74.72;99907.97;5113714;28;20689;-64
2022/04/30 08:07:28;;;;;;;8.27;7.67;;;;;;;21.38;71.52;99918.19;5113057;28;20253;-63
2022/04/30 08:09:55;;;;;;;8.43;7.83;;;;;;;21.04;73.10;99907.41;5113085;28;20288;-63
2022/04/30 08:12:21;;;;;;;7.70;7.13;;;;;;;21.19;74.06;99912.50;5113072;28;20210;-64
2022/04/30 08:14:49;;;;;;;8.57;7.83;;;;;;;21.40;75.05;99915.47;5112786;28;20197;-64
2022/04/30 08:17:16;;;;;;;8.87;7.97;;;;;;;21.43;74.43;99915.25;5113065;28;20570;-64
2022/04/30 08:19:45;;;;;;;9.37;8.67;;;;;;;21.52;76.92;99916.44;5112622;28;20703;-63
2022/04/30 08:22:13;;;;;;;9.33;8.40;;;;;;;21.76;72.60;99917.38;5112912;28;20712;-64
2022/04/30 08:24:40;;;;;;;7.87;7.23;;;;;;;21.86;70.72;99919.28;5112932;28;20198;-64
2022/04/30 08:27:07;;;;;;;8.37;7.67;;;;;;;21.69;69.64;99911.75;5112736;28;20308;-64
2022/04/30 08:29:34;;;;;;;8.40;7.77;;;;;;;22.02;72.75;99892.13;5113222;28;20201;-64
2022/04/30 08:32:01;;;;;;;8.80;8.07;;;;;;;22.32;71.29;99900.44;5112798;28;20559;-65
2022/04/30 08:34:28;;;;;;;7.43;6.80;;;;;;;22.69;71.37;99902.13;5112586;28;20194;-64
2022/04/30 08:36:56;;;;;;;8.50;7.90;;;;;;;22.65;67.23;99912.91;5112729;28;20281;-64
2022/04/30 08:39:23;;;;;;;8.07;7.47;;;;;;;22.42;69.63;99898.84;5112698;28;20202;-64
2022/04/30 08:41:50;;;;;;;7.93;7.33;;;;;;;22.52;70.33;99895.47;5112238;28;20222;-64
2022/04/30 08:44:19;;;;;;;6.80;6.30;;;;;;;22.72;69.47;99894.06;5112484;28;20198;-64
2022/04/30 08:46:47;;;;;;;9.07;7.03;;;;;;;22.91;68.18;99890.94;5112394;28;20289;-64
2022/04/30 08:49:14;;;;;;;7.17;6.57;;;;;;;22.90;69.53;99887.50;5112461;28;20191;-65
2022/04/30 08:51:41;;;;;;;7.03;6.60;;;;;;;23.06;67.82;99889.00;5112320;28;20742;-64
2022/04/30 08:54:09;;;;;;;6.97;6.37;;;;;;;23.34;66.69;99886.00;5112192;28;20294;-64
2022/04/30 08:56:36;;;;;;;6.77;6.20;;;;;;;23.43;63.38;99891.41;5112254;28;20217;-64
2022/04/30 08:59:04;;;;;;;6.67;6.13;;;;;;;23.45;63.03;99883.44;5112415;28;20252;-64
2022/04/30 09:01:32;;;;;;;6.97;6.37;;;;;;;23.42;62.74;99883.69;5112271;28;20574;-64
2022/04/30 09:03:59;;;;;;;5.37;5.07;;;;;;;23.34;61.09;99884.22;5110732;28;20206;-64
2022/04/30 09:06:26;;;;;;;5.27;4.97;;;;;;;22.95;62.45;99872.31;5112051;28;20213;-64
2022/04/30 09:08:54;;;;;;;5.57;5.23;;;;;;;23.11;61.73;99850.25;5111768;28;20218;-64
2022/04/30 09:11:29;;;;;;;6.43;5.53;;;;;;;23.23;60.21;99876.31;5111814;28;20285;-64
2022/04/30 09:13:59;;;;;;;5.90;5.50;;;;;;;22.72;60.40;99854.84;5111945;28;21244;-64
2022/04/30 09:16:26;;;;;;;6.57;6.07;;;;;;;22.76;61.17;99869.38;5112045;28;20690;-64
2022/04/30 09:18:53;;;;;;;6.60;5.90;;;;;;;22.71;63.14;99865.44;5111830;28;20205;-64
2022/04/30 09:21:20;;;;;;;6.73;6.33;;;;;;;22.79;64.22;99863.91;5111796;28;20247;-65
2022/04/30 09:23:48;;;;;;;6.17;5.87;;;;;;;22.75;63.68;99867.69;5111832;28;20657;-64
2022/04/30 09:26:15;;;;;;;5.17;4.80;;;;;;;22.88;60.60;99868.47;5111720;28;20198;-64
2022/04/30 09:28:47;;;;;;;5.03;4.73;;;;;;;22.63;59.16;99867.72;5111665;28;20214;-64
2022/04/30 09:31:16;;;;;;;4.83;4.60;;;;;;;22.70;58.51;99868.97;5111255;28;20202;-64
2022/04/30 09:33:55;;;;;;;4.83;4.50;;;;;;;23.08;59.91;99866.16;5111128;28;20199;-64
2022/04/30 09:39:12;;;;;;;4.60;4.30;;;;;;;23.37;57.98;99855.19;5111226;28;20701;-65
2022/04/30 09:41:39;;;;;;;4.87;4.50;;;;;;;23.04;59.52;99856.91;5111341;28;20306;-64
2022/04/30 09:44:08;;;;;;;5.67;4.87;;;;;;;23.35;62.49;99846.63;5111416;28;20206;-64
2022/04/30 09:46:36;;;;;;;5.30;5.00;;;;;;;23.70;61.35;99845.75;5109169;28;20186;-64
2022/04/30 09:54:36;;;;;;;4.97;4.67;;;;;;;23.11;58.13;99842.41;5111383;28;20648;-64
2022/04/30 09:57:04;;;;;;;5.30;5.07;;;;;;;23.21;57.17;99832.91;5111209;28;20285;-64
2022/04/30 09:59:35;;;;;;;4.43;4.23;;;;;;;23.51;60.55;99830.63;5111500;28;20202;-63
2022/04/30 10:02:05;;;;;;;5.25;4.95;;;;;;;23.71;57.43;99836.97;5107138;28;20447;-66
2022/04/30 10:04:33;;;;;;;5.07;4.87;;;;;;;23.33;57.04;99837.22;5108588;28;20194;-66
2022/04/30 10:07:02;;;;;;;5.83;5.03;;;;;;;23.06;57.22;99831.47;5109244;28;20281;-65
2022/04/30 10:09:35;;;;;;;5.80;5.37;;;;;;;23.12;57.95;99820.53;5108206;28;20657;-67
2022/04/30 10:12:09;;;;;;;5.33;5.00;;;;;;;23.06;57.69;99824.44;5108920;28;20738;-67
2022/04/30 10:14:49;;;;;;;5.03;4.83;;;;;;;22.88;57.28;99826.63;5107121;28;20602;-67
2022/04/30 10:17:18;;;;;;;5.00;4.70;;;;;;;22.99;58.31;99821.47;5106833;28;20207;-66
2022/04/30 10:19:57;;;;;;;5.10;4.80;;;;;;;23.07;59.91;99814.81;5107757;28;20736;-65
2022/04/30 10:22:24;;;;;;;5.63;5.33;;;;;;;23.07;57.58;99814.81;5107876;28;20202;-66
2022/04/30 10:24:58;;;;;;;5.13;4.83;;;;;;;23.05;58.01;99806.25;5109075;28;20203;-66
2022/04/30 10:27:26;;;;;;;5.80;5.07;;;;;;;22.94;58.09;99799.22;5107178;28;20198;-66
2022/04/30 10:29:56;;;;;;;4.40;4.20;;;;;;;22.87;58.54;99798.84;5108689;28;20205;-65
2022/04/30 10:32:34;;;;;;;4.90;4.63;;;;;;;23.06;56.81;99806.16;5108608;28;20211;-67
2022/04/30 10:35:02;;;;;;;5.30;5.00;;;;;;;23.02;58.14;99797.69;5106955;28;20265;-65
2022/04/30 10:37:30;;;;;;;3.53;3.33;;;;;;;23.00;55.70;99799.56;5105533;28;20313;-64
2022/04/30 10:39:58;;;;;;;3.13;3.03;;;;;;;23.07;55.38;99804.38;5107090;28;20718;-64
2022/04/30 10:42:30;;;;;;;3.70;3.50;;;;;;;23.04;53.03;99804.59;5105839;28;20271;-63
2022/04/30 10:44:59;;;;;;;3.70;3.40;;;;;;;22.89;52.30;99796.94;5110461;28;20206;-63
2022/04/30 10:47:26;;;;;;;4.03;3.83;;;;;;;23.05;53.26;99795.78;5110241;28;20282;-64
2022/04/30 10:49:53;;;;;;;3.47;3.37;;;;;;;23.32;54.71;99788.47;5110378;28;20202;-64
2022/04/30 10:52:25;;;;;;;4.17;3.77;;;;;;;23.51;56.07;99794.00;5110272;28;20206;-64
2022/04/30 10:54:56;;;;;;;3.77;3.57;;;;;;;23.38;54.88;99795.84;5111434;28;20571;-64
2022/04/30 10:57:23;;;;;;;3.83;3.63;;;;;;;23.38;54.30;99791.47;5111931;28;20215;-64
2022/04/30 11:00:02;;;;;;;4.03;3.83;;;;;;;23.51;56.03;99800.06;5111776;28;20194;-64
2022/04/30 11:02:33;;;;;;;3.60;3.40;;;;;;;23.44;54.52;99792.78;5111068;28;20205;-65
2022/04/30 11:05:00;;;;;;;3.60;3.40;;;;;;;23.44;51.99;99787.56;5110856;28;20210;-64
2022/04/30 11:07:29;;;;;;;3.80;3.60;;;;;;;23.52;55.58;99786.00;5108393;28;20198;-64
2022/04/30 11:09:56;;;;;;;4.20;4.00;;;;;;;23.66;57.62;99777.09;5111469;28;20206;-65
2022/04/30 11:12:29;;;;;;;3.17;3.07;;;;;;;23.85;55.05;99777.31;5110121;28;20221;-65
2022/04/30 11:14:56;;;;;;;3.57;3.37;;;;;;;24.02;55.78;99779.44;5112551;28;20685;-63
2022/04/30 11:17:25;;;;;;;2.90;2.80;;;;;;;23.58;51.73;99784.72;5109275;28;20202;-64
2022/04/30 11:19:55;;;;;;;2.77;2.67;;;;;;;23.41;49.96;99777.31;5111930;28;20221;-64
2022/04/30 11:22:22;;;;;;;2.63;2.47;;;;;;;23.62;53.49;99765.19;5110638;28;20268;-65
2022/04/30 11:24:49;;;;;;;2.33;2.17;;;;;;;23.85;50.38;99768.63;5109997;28;20239;-65
2022/04/30 11:27:16;;;;;;;2.20;2.10;;;;;;;24.02;49.46;99768.97;5109512;28;20677;-65
2022/04/30 11:29:49;;;;;;;2.60;2.50;;;;;;;24.23;49.85;99765.63;5110531;28;20219;-65
2022/04/30 11:32:21;;;;;;;2.50;2.40;;;;;;;24.41;50.75;99766.72;5109300;28;20203;-68
2022/04/30 11:34:50;;;;;;;2.80;2.60;;;;;;;24.33;48.56;99761.31;5108827;28;20241;-68
2022/04/30 11:37:18;;;;;;;3.23;2.50;;;;;;;24.05;49.68;99752.16;5108743;28;20202;-64
2022/04/30 11:39:45;;;;;;;2.30;2.10;;;;;;;24.14;50.03;99745.38;5107038;28;20671;-63
2022/04/30 11:42:12;;;;;;;2.70;2.43;;;;;;;24.24;48.39;99741.88;5112357;27;20257;-66
2022/04/30 11:44:39;;;;;;;2.63;2.53;;;;;;;24.27;49.44;99746.03;5109250;28;20221;-63
2022/04/30 11:47:08;;;;;;;2.60;2.50;;;;;;;24.22;48.38;99732.50;5110016;28;20206;-64
2022/04/30 11:49:36;;;;;;;2.10;2.00;;;;;;;24.24;47.35;99743.69;5104930;28;20219;-63
2022/04/30 11:52:05;;;;;;;2.50;2.40;;;;;;;23.98;47.59;99757.06;5103664;28;20202;-63
2022/04/30 11:54:38;;;;;;;2.43;2.23;;;;;;;24.03;50.53;99747.06;5106015;28;20210;-63
2022/04/30 11:57:05;;;;;;;2.03;1.93;;;;;;;24.24;49.91;99741.06;5109063;28;20584;-63
2022/04/30 11:59:34;;;;;;;2.43;2.23;;;;;;;24.39;49.22;99742.44;5105772;28;20195;-63